createdAt,value
2018-07-19T00:00:20.620Z,17.43
2018-07-19T00:02:49.129Z,18.17
2018-07-19T00:05:17.599Z,14.67
2018-07-19T00:07:46.510Z,14.50
2018-07-19T00:10:15.064Z,14.27
2018-07-19T00:12:46.990Z,17.33
2018-07-19T00:15:15.466Z,18.03
2018-07-19T00:17:43.973Z,14.53
2018-07-19T00:20:12.301Z,16.67
2018-07-19T00:22:40.661Z,15.37
2018-07-19T00:25:08.957Z,16.87
2018-07-19T00:27:37.263Z,16.57
2018-07-19T00:30:05.987Z,16.23
2018-07-19T00:32:34.252Z,14.93
2018-07-19T00:35:03.108Z,17.90
2018-07-19T00:37:31.593Z,15.57
2018-07-19T00:40:00.094Z,17.03
2018-07-19T00:42:28.563Z,17.37
2018-07-19T00:44:57.066Z,17.00
2018-07-19T00:47:25.934Z,18.80
2018-07-19T00:49:54.464Z,19.93
2018-07-19T00:52:22.780Z,17.17
2018-07-19T00:54:51.283Z,19.40
2018-07-19T00:57:19.744Z,17.47
2018-07-19T00:59:48.278Z,18.07
2018-07-19T01:02:16.550Z,17.93
2018-07-19T01:04:45.015Z,18.90
2018-07-19T01:07:13.497Z,20.67
2018-07-19T01:09:45.500Z,18.63
2018-07-19T01:12:13.809Z,20.13
2018-07-19T01:14:42.458Z,17.47
2018-07-19T01:17:11.270Z,17.47
2018-07-19T01:19:39.789Z,21.53
2018-07-19T01:22:08.271Z,20.80
2018-07-19T01:24:36.576Z,20.80
2018-07-19T01:27:05.089Z,21.77
2018-07-19T01:29:33.603Z,24.27
2018-07-19T01:32:02.094Z,24.33
2018-07-19T01:34:30.601Z,25.00
2018-07-19T01:36:59.070Z,25.67
2018-07-19T01:39:27.560Z,22.17
2018-07-19T01:42:58.798Z,24.97
2018-07-19T01:45:27.530Z,24.00
2018-07-19T01:47:56.032Z,28.90
2018-07-19T01:50:24.547Z,33.07
2018-07-19T01:52:53.010Z,29.87
2018-07-19T01:55:21.341Z,27.77
2018-07-19T01:57:49.801Z,32.90
2018-07-19T02:00:18.019Z,38.80
2018-07-19T02:02:46.300Z,37.87
2018-07-19T02:05:15.067Z,39.17
2018-07-19T02:07:43.570Z,38.23
2018-07-19T02:10:11.915Z,43.87
2018-07-19T02:12:40.376Z,44.37
2018-07-19T02:15:08.895Z,40.63
2018-07-19T02:17:37.434Z,44.60
2018-07-19T02:20:05.743Z,42.37
2018-07-19T02:22:34.258Z,46.00
2018-07-19T02:25:02.876Z,53.87
2018-07-19T02:27:31.365Z,48.87
2018-07-19T02:29:59.830Z,52.87
2018-07-19T02:32:28.289Z,50.23
2018-07-19T02:34:56.769Z,51.73
2018-07-19T02:37:25.263Z,53.67
2018-07-19T02:39:53.575Z,47.07
2018-07-19T02:42:22.065Z,53.47
2018-07-19T02:44:50.548Z,54.77
2018-07-19T02:47:19.026Z,52.83
2018-07-19T02:49:47.742Z,59.57
2018-07-19T02:52:16.243Z,60.97
2018-07-19T02:54:44.703Z,62.60
2018-07-19T02:57:13.184Z,57.97
2018-07-19T02:59:41.666Z,63.10
2018-07-19T03:02:10.570Z,62.80
2018-07-19T03:04:39.089Z,61.10
2018-07-19T03:07:07.636Z,58.23
2018-07-19T03:09:35.884Z,56.77
2018-07-19T03:12:04.355Z,58.97
2018-07-19T03:14:32.571Z,60.17
2018-07-19T03:17:01.063Z,65.67
2018-07-19T03:19:29.521Z,60.77
2018-07-19T03:21:58.030Z,60.93
2018-07-19T03:24:26.505Z,65.70
2018-07-19T03:26:55.020Z,57.47
2018-07-19T03:29:23.547Z,66.43
2018-07-19T03:31:51.992Z,62.50
2018-07-19T03:34:20.965Z,59.83
2018-07-19T03:36:49.230Z,68.00
2018-07-19T03:39:17.705Z,67.80
2018-07-19T03:41:46.238Z,63.27
2018-07-19T03:44:14.735Z,62.27
2018-07-19T03:46:43.243Z,59.53
2018-07-19T03:49:11.724Z,60.97
2018-07-19T03:51:40.343Z,59.53
2018-07-19T03:54:09.215Z,58.00
2018-07-19T03:56:37.533Z,60.60
2018-07-19T03:59:06.041Z,59.77
2018-07-19T04:01:34.515Z,58.97
2018-07-19T04:04:03.009Z,64.03
2018-07-19T04:06:31.516Z,66.73
2018-07-19T04:09:00.079Z,66.23
2018-07-19T04:11:28.604Z,66.97
2018-07-19T04:13:56.907Z,68.87
2018-07-19T04:16:25.400Z,71.80
2018-07-19T04:18:53.707Z,66.17
2018-07-19T04:23:59.158Z,72.80
2018-07-19T04:26:27.753Z,69.33
2018-07-19T04:28:57.719Z,66.33
2018-07-19T04:31:26.219Z,60.47
2018-07-19T04:33:54.751Z,58.90
2018-07-19T04:36:23.596Z,51.10
2018-07-19T04:38:52.697Z,51.30
2018-07-19T04:41:20.984Z,50.63
2018-07-19T04:43:49.478Z,49.10
2018-07-19T04:46:18.035Z,42.17
2018-07-19T04:48:46.523Z,50.47
2018-07-19T04:51:15.045Z,46.07
2018-07-19T04:53:43.530Z,47.83
2018-07-19T04:56:12.343Z,47.37
2018-07-19T04:58:41.428Z,43.20
2018-07-19T05:01:10.214Z,38.67
2018-07-19T05:03:39.612Z,42.05
2018-07-19T05:06:08.484Z,39.10
2018-07-19T05:08:37.123Z,35.17
2018-07-19T05:11:05.994Z,36.35
2018-07-19T05:13:35.070Z,40.28
2018-07-19T05:16:04.158Z,38.30
2018-07-19T05:18:32.641Z,38.63
2018-07-19T05:21:01.690Z,39.13
2018-07-19T05:23:30.816Z,39.00
2018-07-19T05:25:59.971Z,41.00
2018-07-19T05:28:29.029Z,40.15
2018-07-19T05:30:57.825Z,36.13
2018-07-19T05:33:26.891Z,32.67
2018-07-19T05:35:55.976Z,36.33
2018-07-19T05:38:25.435Z,38.05
2018-07-19T05:40:54.517Z,36.77
2018-07-19T05:43:23.378Z,32.90
2018-07-19T05:45:52.802Z,34.08
2018-07-19T05:48:21.883Z,32.95
2018-07-19T05:50:51.242Z,35.68
2018-07-19T05:53:20.537Z,36.05
2018-07-19T05:55:49.788Z,32.33
2018-07-19T05:58:19.118Z,29.30
2018-07-19T06:00:47.880Z,28.93
2018-07-19T06:03:17.311Z,26.37
2018-07-19T06:05:46.688Z,27.37
2018-07-19T06:08:15.575Z,28.32
2018-07-19T06:10:44.620Z,32.60
2018-07-19T06:13:13.644Z,30.50
2018-07-19T06:15:42.660Z,27.13
2018-07-19T06:18:12.063Z,29.35
2018-07-19T06:20:41.103Z,27.90
2018-07-19T06:23:10.094Z,27.22
2018-07-19T06:25:39.746Z,23.32
2018-07-19T06:28:09.138Z,23.90
2018-07-19T06:30:38.212Z,23.98
2018-07-19T06:33:07.390Z,21.07
2018-07-19T06:35:36.419Z,16.10
2018-07-19T06:38:05.468Z,16.75
2018-07-19T06:40:34.502Z,20.35
2018-07-19T06:43:03.550Z,17.17
2018-07-19T06:45:32.364Z,18.27
2018-07-19T06:48:01.434Z,13.10
2018-07-19T06:50:30.480Z,12.88
2018-07-19T06:52:59.501Z,14.13
2018-07-19T06:55:28.345Z,10.25
2018-07-19T06:57:57.373Z,11.93
2018-07-19T07:00:26.095Z,13.43
2018-07-19T07:02:55.114Z,11.03
2018-07-19T07:05:24.175Z,13.95
2018-07-19T07:07:53.065Z,12.53
2018-07-19T07:10:22.407Z,14.65
2018-07-19T07:12:52.671Z,16.02
2018-07-19T07:15:22.035Z,13.95
2018-07-19T07:17:51.094Z,12.70
2018-07-19T07:20:19.944Z,10.15
2018-07-19T07:22:49.073Z,10.88
2018-07-19T07:25:18.135Z,10.68
2018-07-19T07:27:47.187Z,10.65
2018-07-19T07:30:16.247Z,10.82
2018-07-19T07:32:45.289Z,9.95
2018-07-19T07:35:14.278Z,9.78
2018-07-19T07:37:43.678Z,7.62
2018-07-19T07:40:13.133Z,8.75
2018-07-19T07:42:42.162Z,7.40
2018-07-19T07:45:11.533Z,4.58
2018-07-19T07:47:40.562Z,4.15
2018-07-19T07:50:09.598Z,8.50
2018-07-19T07:52:39.018Z,4.87
2018-07-19T07:55:08.065Z,5.20
2018-07-19T07:57:37.094Z,5.85
2018-07-19T08:00:06.447Z,6.45
2018-07-19T08:02:35.020Z,6.17
2018-07-19T08:05:04.384Z,5.97
2018-07-19T08:07:33.759Z,5.53
2018-07-19T08:10:02.683Z,5.50
2018-07-19T08:12:31.846Z,8.18
2018-07-19T08:15:00.933Z,5.90
2018-07-19T08:17:30.027Z,6.30
2018-07-19T08:19:59.078Z,8.45
2018-07-19T08:22:28.054Z,4.72
2018-07-19T08:24:57.090Z,7.67
2018-07-19T08:27:26.136Z,4.58
2018-07-19T08:29:55.521Z,7.50
2018-07-19T08:32:24.521Z,7.20
2018-07-19T08:34:53.800Z,6.78
2018-07-19T08:37:22.848Z,6.80
2018-07-19T08:39:51.762Z,5.55
2018-07-19T08:42:20.653Z,4.30
2018-07-19T08:44:49.862Z,4.50
2018-07-19T08:47:19.059Z,4.70
2018-07-19T08:49:48.378Z,6.20
2018-07-19T08:52:18.206Z,4.53
2018-07-19T08:54:47.704Z,5.03
2018-07-19T08:57:17.077Z,4.87
2018-07-19T08:59:46.532Z,6.08
2018-07-19T09:02:15.344Z,5.67
2018-07-19T09:04:44.466Z,3.77
2018-07-19T09:07:13.300Z,5.10
2018-07-19T09:09:42.451Z,2.83
2018-07-19T09:12:11.339Z,3.25
2018-07-19T09:14:40.522Z,6.20
2018-07-19T09:17:09.393Z,4.45
2018-07-19T09:19:38.528Z,4.58
2018-07-19T09:22:07.408Z,4.05
2018-07-19T09:24:36.232Z,5.67
2018-07-19T09:27:05.181Z,4.40
2018-07-19T09:29:34.216Z,5.08
2018-07-19T09:32:03.504Z,6.05
2018-07-19T09:34:32.549Z,3.33
2018-07-19T09:37:01.612Z,2.55
2018-07-19T09:39:30.655Z,4.10
2018-07-19T09:41:59.678Z,4.35
2018-07-19T09:44:28.959Z,4.08
2018-07-19T09:46:57.998Z,3.60
2018-07-19T09:49:27.050Z,2.98
2018-07-19T09:51:55.962Z,4.97
2018-07-19T09:54:36.216Z,2.80
2018-07-19T09:57:05.337Z,4.60
2018-07-19T09:59:34.180Z,3.05
2018-07-19T10:02:02.955Z,4.03
2018-07-19T10:04:32.012Z,2.45
2018-07-19T10:07:00.917Z,2.60
2018-07-19T10:10:59.012Z,4.35
2018-07-19T10:13:28.313Z,4.03
2018-07-19T10:15:57.356Z,4.37
2018-07-19T10:18:26.718Z,4.62
2018-07-19T10:20:55.745Z,4.33
2018-07-19T10:23:24.996Z,2.35
2018-07-19T10:25:54.325Z,3.42
2018-07-19T10:28:23.347Z,3.42
2018-07-19T10:30:52.226Z,4.85
2018-07-19T10:33:21.118Z,3.92
2018-07-19T10:35:49.964Z,2.60
2018-07-19T10:38:18.853Z,3.30
2018-07-19T10:40:48.138Z,3.77
2018-07-19T10:43:17.254Z,3.02
2018-07-19T10:45:46.305Z,3.67
2018-07-19T10:48:15.477Z,3.67
2018-07-19T10:50:44.290Z,3.62
2018-07-19T10:53:13.115Z,4.20
2018-07-19T10:55:42.151Z,3.08
2018-07-19T10:58:11.008Z,5.20
2018-07-19T11:00:39.617Z,3.73
2018-07-19T11:03:08.471Z,3.30
2018-07-19T11:05:37.297Z,2.75
2018-07-19T11:08:06.463Z,3.35
2018-07-19T11:10:35.288Z,3.25
2018-07-19T11:13:04.507Z,4.08
2018-07-19T11:15:33.379Z,2.52
2018-07-19T11:18:02.283Z,3.27
2018-07-19T11:20:31.295Z,3.52
2018-07-19T11:23:00.457Z,3.00
2018-07-19T11:25:29.358Z,3.15
2018-07-19T11:27:58.220Z,2.77
2018-07-19T11:30:27.092Z,3.12
2018-07-19T11:32:56.289Z,3.08
2018-07-19T11:35:25.201Z,3.30
2018-07-19T11:37:54.114Z,2.90
2018-07-19T11:40:22.971Z,3.05
2018-07-19T11:42:52.189Z,2.30
2018-07-19T11:45:21.070Z,3.05
2018-07-19T11:47:49.659Z,1.63
2018-07-19T11:50:18.500Z,2.55
2018-07-19T11:52:47.400Z,8.38
2018-07-19T11:55:16.243Z,3.47
2018-07-19T11:57:45.057Z,2.37
2018-07-19T12:00:14.313Z,1.62
2018-07-19T12:02:43.191Z,1.95
2018-07-19T12:05:12.998Z,2.00
2018-07-19T12:07:41.864Z,1.85
2018-07-19T12:10:10.756Z,1.40
2018-07-19T12:12:39.645Z,2.33
2018-07-19T12:15:08.546Z,0.93
2018-07-19T12:17:37.121Z,1.27
2018-07-19T12:20:06.632Z,1.80
2018-07-19T12:22:35.793Z,1.90
2018-07-19T12:25:05.165Z,1.22
2018-07-19T12:27:34.461Z,1.27
2018-07-19T12:30:04.454Z,1.72
2018-07-19T12:32:33.324Z,1.75
2018-07-19T12:35:02.152Z,1.42
2018-07-19T12:37:31.061Z,1.13
2018-07-19T12:39:59.975Z,1.30
2018-07-19T12:42:28.830Z,1.40
2018-07-19T12:44:57.444Z,2.43
2018-07-19T12:47:26.262Z,2.55
2018-07-19T12:49:55.095Z,2.20
2018-07-19T12:52:23.578Z,0.67
2018-07-19T12:54:52.113Z,0.90
2018-07-19T12:57:20.932Z,1.35
2018-07-19T12:59:49.767Z,1.82
2018-07-19T13:02:18.287Z,1.87
2018-07-19T13:04:47.135Z,4.17
2018-07-19T13:07:15.985Z,1.23
2018-07-19T13:09:44.801Z,1.85
2018-07-19T13:12:13.966Z,2.17
2018-07-19T13:14:42.806Z,1.87
2018-07-19T13:17:11.616Z,1.72
2018-07-19T13:19:40.161Z,0.40
2018-07-19T13:22:08.992Z,2.20
2018-07-19T13:24:38.120Z,1.70
2018-07-19T13:27:06.669Z,0.80
2018-07-19T13:29:35.285Z,1.57
2018-07-19T13:32:03.849Z,1.67
2018-07-19T13:34:32.383Z,0.97
2018-07-19T13:37:00.937Z,1.70
2018-07-19T13:39:29.508Z,1.30
2018-07-19T13:41:58.032Z,2.47
2018-07-19T13:44:26.965Z,1.80
2018-07-19T13:46:55.554Z,1.37
2018-07-19T13:49:24.119Z,0.83
2018-07-19T13:51:52.671Z,1.83
2018-07-19T13:54:31.430Z,3.30
2018-07-19T13:57:00.292Z,7.22
2018-07-19T13:59:28.852Z,1.50
2018-07-19T14:01:57.754Z,0.80
2018-07-19T14:04:26.335Z,1.40
2018-07-19T14:06:54.845Z,1.53
2018-07-19T14:09:23.399Z,1.17
2018-07-19T14:11:51.911Z,1.73
2018-07-19T14:14:20.475Z,1.27
2018-07-19T14:16:49.049Z,2.40
2018-07-19T14:19:17.622Z,1.43
2018-07-19T14:21:46.156Z,2.20
2018-07-19T14:24:14.974Z,1.45
2018-07-19T14:26:44.352Z,2.17
2018-07-19T14:29:13.473Z,2.12
2018-07-19T14:31:42.303Z,2.02
2018-07-19T14:34:10.987Z,1.87
2018-07-19T14:36:39.734Z,1.80
2018-07-19T14:39:11.636Z,1.50
2018-07-19T14:41:40.289Z,1.03
2018-07-19T14:44:09.160Z,2.83
2018-07-19T14:46:37.842Z,1.90
2018-07-19T14:49:07.591Z,2.17
2018-07-19T14:51:36.514Z,2.27
2018-07-19T14:54:05.129Z,2.93
2018-07-19T14:56:33.697Z,2.37
2018-07-19T14:59:02.556Z,3.00
2018-07-19T15:01:31.121Z,1.87
2018-07-19T15:04:00.163Z,2.27
2018-07-19T15:06:29.077Z,3.40
2018-07-19T15:08:58.011Z,3.27
2018-07-19T15:11:26.858Z,3.40
2018-07-19T15:13:55.717Z,3.25
2018-07-19T15:16:24.630Z,2.65
2018-07-19T15:18:53.507Z,4.33
2018-07-19T15:21:22.733Z,2.65
2018-07-19T15:23:51.550Z,7.33
2018-07-19T15:26:20.453Z,3.95
2018-07-19T15:28:49.350Z,4.00
2018-07-19T15:31:18.540Z,2.58
2018-07-19T15:33:47.427Z,5.28
2018-07-19T15:36:16.356Z,3.10
2018-07-19T15:38:45.763Z,3.42
2018-07-19T15:41:14.601Z,4.20
2018-07-19T15:43:43.503Z,9.28
2018-07-19T15:46:12.358Z,7.12
2018-07-19T15:48:41.178Z,2.62
2018-07-19T15:51:10.024Z,2.40
2018-07-19T15:53:38.836Z,1.80
2018-07-19T15:56:07.731Z,3.12
2018-07-19T15:58:36.742Z,3.02
2018-07-19T16:01:05.679Z,2.33
2018-07-19T16:03:34.272Z,2.90
2018-07-19T16:06:02.905Z,2.93
2018-07-19T16:08:31.517Z,3.03
2018-07-19T16:11:00.111Z,2.70
2018-07-19T16:13:28.794Z,3.20
2018-07-19T16:15:57.486Z,2.50
2018-07-19T16:18:26.463Z,2.10
2018-07-19T16:20:55.020Z,2.73
2018-07-19T16:23:23.643Z,3.97
2018-07-19T16:25:52.008Z,2.47
2018-07-19T16:28:20.744Z,3.60
2018-07-19T16:30:49.394Z,3.50
2018-07-19T16:33:17.718Z,3.67
2018-07-19T16:35:46.366Z,4.13
2018-07-19T16:38:15.104Z,3.03
2018-07-19T16:40:43.705Z,5.20
2018-07-19T16:43:12.379Z,3.30
2018-07-19T16:45:40.945Z,3.87
2018-07-19T16:48:09.562Z,2.87
2018-07-19T16:50:38.247Z,3.63
2018-07-19T16:53:07.000Z,2.67
2018-07-19T16:55:36.708Z,4.50
2018-07-19T16:58:05.470Z,5.30
2018-07-19T17:00:33.839Z,2.77
2018-07-19T17:03:02.520Z,3.43
2018-07-19T17:05:31.177Z,4.23
2018-07-19T17:07:59.799Z,3.23
2018-07-19T17:10:28.427Z,3.17
2018-07-19T17:12:57.041Z,3.70
2018-07-19T17:15:26.061Z,3.77
2018-07-19T17:17:54.616Z,3.20
2018-07-19T17:20:23.253Z,2.67
2018-07-19T17:22:51.867Z,3.90
2018-07-19T17:25:20.773Z,6.20
2018-07-19T17:27:49.391Z,2.87
2018-07-19T17:30:18.787Z,2.75
2018-07-19T17:32:48.138Z,3.35
2018-07-19T17:35:17.395Z,4.10
2018-07-19T17:37:46.752Z,4.03
2018-07-19T17:40:15.905Z,3.77
2018-07-19T17:42:45.224Z,3.02
2018-07-19T17:45:14.112Z,2.60
2018-07-19T17:47:43.167Z,2.60
2018-07-19T17:50:12.066Z,3.10
2018-07-19T17:52:40.981Z,3.95
2018-07-19T17:55:09.674Z,4.50
2018-07-19T17:57:38.676Z,3.45
2018-07-19T18:00:07.661Z,3.35
2018-07-19T18:02:36.322Z,5.60
2018-07-19T18:05:05.302Z,4.20
2018-07-19T18:07:34.262Z,4.80
2018-07-19T18:10:03.216Z,4.05
2018-07-19T18:12:32.208Z,4.10
2018-07-19T18:15:01.341Z,4.25
2018-07-19T18:17:30.234Z,5.58
2018-07-19T18:19:59.193Z,4.37
2018-07-19T18:22:28.421Z,4.78
2018-07-19T18:24:57.438Z,7.12
2018-07-19T18:27:26.372Z,6.12
2018-07-19T18:29:55.345Z,11.45
2018-07-19T18:32:24.442Z,6.22
2018-07-19T18:34:53.376Z,5.33
2018-07-19T18:37:22.227Z,6.15
2018-07-19T18:39:51.198Z,5.65
2018-07-19T18:42:20.105Z,4.85
2018-07-19T18:44:49.053Z,4.75
2018-07-19T18:47:17.997Z,4.33
2018-07-19T18:49:46.961Z,7.72
2018-07-19T18:52:15.991Z,6.22
2018-07-19T18:54:45.476Z,4.30
2018-07-19T18:57:14.883Z,5.15
2018-07-19T18:59:43.776Z,6.65
2018-07-19T19:02:12.733Z,6.30
2018-07-19T19:04:42.594Z,6.08
2018-07-19T19:07:11.627Z,4.40
2018-07-19T19:09:40.674Z,7.05
2018-07-19T19:12:09.968Z,4.17
2018-07-19T19:14:38.606Z,5.00
2018-07-19T19:17:07.500Z,5.35
2018-07-19T19:19:36.814Z,5.83
2018-07-19T19:22:05.840Z,6.25
2018-07-19T19:24:34.804Z,5.37
2018-07-19T19:27:04.443Z,4.60
2018-07-19T19:29:33.278Z,5.42
2018-07-19T19:32:02.167Z,8.63
2018-07-19T19:34:31.153Z,6.97
2018-07-19T19:37:00.047Z,4.80
2018-07-19T19:39:29.151Z,5.97
2018-07-19T19:41:58.062Z,4.58
2018-07-19T19:44:27.021Z,6.17
2018-07-19T19:46:55.990Z,4.50
2018-07-19T19:49:24.970Z,5.42
2018-07-19T19:51:53.987Z,5.42
2018-07-19T19:54:22.916Z,6.58
2018-07-19T19:56:52.042Z,5.53
2018-07-19T19:59:21.129Z,4.15
2018-07-19T20:01:49.835Z,5.23
2018-07-19T20:04:18.795Z,7.03
2018-07-19T20:06:47.746Z,8.63
2018-07-19T20:09:16.734Z,5.35
2018-07-19T20:11:45.941Z,5.92
2018-07-19T20:14:14.965Z,3.87
2018-07-19T20:16:43.974Z,4.70
2018-07-19T20:19:12.956Z,6.08
2018-07-19T20:21:41.934Z,4.67
2018-07-19T20:24:10.975Z,6.12
2018-07-19T20:26:39.979Z,5.08
2018-07-19T20:29:08.880Z,6.22
2018-07-19T20:31:37.540Z,6.28
2018-07-19T20:34:06.768Z,6.90
2018-07-19T20:36:35.670Z,4.55
2018-07-19T20:39:06.744Z,5.25
2018-07-19T20:41:35.802Z,6.78
2018-07-19T20:44:05.023Z,6.30
2018-07-19T20:46:33.855Z,5.00
2018-07-19T20:49:02.837Z,6.30
2018-07-19T20:51:31.927Z,4.75
2018-07-19T20:54:00.989Z,6.58
2018-07-19T20:56:29.911Z,7.35
2018-07-19T20:58:58.846Z,5.08
2018-07-19T21:01:28.147Z,4.35
2018-07-19T21:03:57.046Z,6.78
2018-07-19T21:06:26.063Z,6.42
2018-07-19T21:08:55.427Z,7.55
2018-07-19T21:11:24.384Z,4.92
2018-07-19T21:13:53.378Z,7.90
2018-07-19T21:16:22.544Z,7.50
2018-07-19T21:18:51.437Z,8.98
2018-07-19T21:21:20.355Z,10.75
2018-07-19T21:23:49.211Z,8.75
2018-07-19T21:26:18.097Z,8.88
2018-07-19T21:28:47.043Z,9.40
2018-07-19T21:31:15.993Z,8.08
2018-07-19T21:33:45.088Z,8.68
2018-07-19T21:36:14.226Z,9.33
2018-07-19T21:38:43.613Z,9.23
2018-07-19T21:41:11.938Z,9.80
2018-07-19T21:43:40.295Z,9.00
2018-07-19T21:46:09.164Z,11.88
2018-07-19T21:48:37.511Z,9.70
2018-07-19T21:51:06.629Z,10.85
2018-07-19T21:53:34.983Z,14.38
2018-07-19T21:56:03.384Z,9.45
2018-07-19T21:58:32.092Z,9.60
2018-07-19T22:01:05.679Z,7.78
2018-07-19T22:03:34.025Z,8.43
2018-07-19T22:06:02.434Z,9.83
2018-07-19T22:08:30.844Z,10.80
2018-07-19T22:10:59.328Z,9.80
2018-07-19T22:13:27.677Z,9.73
2018-07-19T22:15:56.084Z,11.43
2018-07-19T22:18:24.774Z,9.17
2018-07-19T22:20:53.507Z,9.13
2018-07-19T22:23:21.876Z,10.77
2018-07-19T22:25:50.222Z,10.43
2018-07-19T22:28:18.540Z,10.47
2018-07-19T22:30:46.887Z,10.70
2018-07-19T22:33:15.291Z,12.23
2018-07-19T22:35:43.770Z,9.53
2018-07-19T22:38:12.365Z,10.00
2018-07-19T22:40:40.696Z,11.60
2018-07-19T22:43:09.046Z,11.07
2018-07-19T22:45:37.436Z,12.30
2018-07-19T22:48:06.315Z,12.77
2018-07-19T22:50:34.665Z,10.70
2018-07-19T22:53:03.407Z,13.33
2018-07-19T22:55:31.747Z,11.97
2018-07-19T22:58:00.081Z,11.63
2018-07-19T23:00:28.447Z,13.07
2018-07-19T23:02:56.800Z,12.60
2018-07-19T23:05:25.148Z,12.70
2018-07-19T23:07:53.483Z,13.97
2018-07-19T23:10:21.946Z,14.63
2018-07-19T23:12:50.275Z,13.83
2018-07-19T23:15:18.623Z,13.70
2018-07-19T23:17:46.946Z,14.00
2018-07-19T23:20:15.275Z,16.03
2018-07-19T23:22:49.583Z,15.17
2018-07-19T23:25:17.892Z,14.53
2018-07-19T23:27:46.298Z,14.67
2018-07-19T23:30:14.624Z,13.17
2018-07-19T23:32:42.993Z,15.30
2018-07-19T23:35:11.642Z,14.40
2018-07-19T23:37:41.605Z,14.07
2018-07-19T23:40:15.362Z,13.63
2018-07-19T23:42:47.991Z,14.57
2018-07-19T23:45:26.567Z,14.20
2018-07-19T23:47:55.589Z,14.27
2018-07-19T23:50:23.883Z,15.63
2018-07-19T23:52:52.207Z,19.00
2018-07-19T23:55:20.542Z,18.47
2018-07-19T23:57:48.884Z,17.07
